sensor_id;sensor_type;location;lat;lon;timestamp;P1;durP1;ratioP1;P2;durP2;ratioP2
61483;SDS011;47349;55.640;37.692;2023-07-24T00:02:03;5.18;;;4.68;;
61483;SDS011;47349;55.640;37.692;2023-07-24T00:04:31;8.32;;;4.80;;
61483;SDS011;47349;55.640;37.692;2023-07-24T00:06:59;5.47;;;4.70;;
61483;SDS011;47349;55.640;37.692;2023-07-24T00:09:27;7.47;;;3.95;;
61483;SDS011;47349;55.640;37.692;2023-07-24T00:11:54;6.05;;;4.10;;
61483;SDS011;47349;55.640;37.692;2023-07-24T00:14:21;6.30;;;4.40;;
61483;SDS011;47349;55.640;37.692;2023-07-24T00:16:48;5.93;;;4.38;;
61483;SDS011;47349;55.640;37.692;2023-07-24T00:19:15;8.23;;;4.47;;
61483;SDS011;47349;55.640;37.692;2023-07-24T00:21:43;7.88;;;4.30;;
61483;SDS011;47349;55.640;37.692;2023-07-24T00:24:10;6.93;;;3.85;;
61483;SDS011;47349;55.640;37.692;2023-07-24T00:26:37;8.32;;;5.15;;
61483;SDS011;47349;55.640;37.692;2023-07-24T00:29:04;7.07;;;4.47;;
61483;SDS011;47349;55.640;37.692;2023-07-24T00:31:32;6.15;;;4.93;;
61483;SDS011;47349;55.640;37.692;2023-07-24T00:33:59;6.57;;;4.28;;
61483;SDS011;47349;55.640;37.692;2023-07-24T00:36:27;6.45;;;4.63;;
61483;SDS011;47349;55.640;37.692;2023-07-24T00:38:55;6.30;;;4.88;;
61483;SDS011;47349;55.640;37.692;2023-07-24T00:41:22;7.75;;;5.40;;
61483;SDS011;47349;55.640;37.692;2023-07-24T00:43:49;6.95;;;4.75;;
61483;SDS011;47349;55.640;37.692;2023-07-24T00:46:16;8.68;;;5.18;;
61483;SDS011;47349;55.640;37.692;2023-07-24T00:48:44;8.75;;;5.40;;
61483;SDS011;47349;55.640;37.692;2023-07-24T00:51:11;7.18;;;4.70;;
61483;SDS011;47349;55.640;37.692;2023-07-24T00:53:38;7.30;;;4.50;;
61483;SDS011;47349;55.640;37.692;2023-07-24T00:56:06;6.13;;;5.47;;
61483;SDS011;47349;55.640;37.692;2023-07-24T00:58:34;6.32;;;4.90;;
61483;SDS011;47349;55.640;37.692;2023-07-24T01:01:04;8.05;;;5.18;;
61483;SDS011;47349;55.640;37.692;2023-07-24T01:03:32;6.30;;;5.10;;
61483;SDS011;47349;55.640;37.692;2023-07-24T01:06:03;10.02;;;5.60;;
61483;SDS011;47349;55.640;37.692;2023-07-24T01:08:31;7.03;;;5.50;;
61483;SDS011;47349;55.640;37.692;2023-07-24T01:11:03;7.25;;;5.57;;
61483;SDS011;47349;55.640;37.692;2023-07-24T01:13:39;6.90;;;5.35;;
61483;SDS011;47349;55.640;37.692;2023-07-24T01:16:16;8.35;;;5.88;;
61483;SDS011;47349;55.640;37.692;2023-07-24T01:18:49;7.65;;;4.57;;
61483;SDS011;47349;55.640;37.692;2023-07-24T01:21:20;7.88;;;4.75;;
61483;SDS011;47349;55.640;37.692;2023-07-24T01:26:41;6.95;;;5.63;;
61483;SDS011;47349;55.640;37.692;2023-07-24T01:29:09;9.13;;;4.80;;
61483;SDS011;47349;55.640;37.692;2023-07-24T01:31:36;5.32;;;4.82;;
61483;SDS011;47349;55.640;37.692;2023-07-24T01:34:04;7.00;;;5.55;;
61483;SDS011;47349;55.640;37.692;2023-07-24T01:36:31;7.32;;;4.63;;
61483;SDS011;47349;55.640;37.692;2023-07-24T01:39:05;10.65;;;5.05;;
61483;SDS011;47349;55.640;37.692;2023-07-24T01:41:34;7.43;;;4.93;;
61483;SDS011;47349;55.640;37.692;2023-07-24T01:44:02;8.07;;;5.38;;
61483;SDS011;47349;55.640;37.692;2023-07-24T01:46:29;10.40;;;5.50;;
61483;SDS011;47349;55.640;37.692;2023-07-24T01:48:57;8.88;;;5.50;;
61483;SDS011;47349;55.640;37.692;2023-07-24T01:51:24;9.52;;;5.18;;
61483;SDS011;47349;55.640;37.692;2023-07-24T01:53:52;6.20;;;4.68;;
61483;SDS011;47349;55.640;37.692;2023-07-24T01:56:19;10.10;;;5.28;;
61483;SDS011;47349;55.640;37.692;2023-07-24T01:58:46;6.65;;;4.85;;
61483;SDS011;47349;55.640;37.692;2023-07-24T02:01:13;10.68;;;5.50;;
61483;SDS011;47349;55.640;37.692;2023-07-24T02:03:42;5.82;;;5.22;;
61483;SDS011;47349;55.640;37.692;2023-07-24T02:06:11;8.35;;;5.43;;
61483;SDS011;47349;55.640;37.692;2023-07-24T02:08:38;6.65;;;5.68;;
61483;SDS011;47349;55.640;37.692;2023-07-24T02:11:05;10.43;;;5.80;;
61483;SDS011;47349;55.640;37.692;2023-07-24T02:13:33;9.02;;;5.40;;
61483;SDS011;47349;55.640;37.692;2023-07-24T02:16:00;8.38;;;5.88;;
61483;SDS011;47349;55.640;37.692;2023-07-24T02:18:28;11.02;;;6.90;;
61483;SDS011;47349;55.640;37.692;2023-07-24T02:20:55;10.73;;;7.05;;
61483;SDS011;47349;55.640;37.692;2023-07-24T02:23:23;10.02;;;7.30;;
61483;SDS011;47349;55.640;37.692;2023-07-24T02:25:51;9.75;;;6.70;;
61483;SDS011;47349;55.640;37.692;2023-07-24T02:28:19;8.48;;;6.40;;
61483;SDS011;47349;55.640;37.692;2023-07-24T02:30:47;8.93;;;6.70;;
61483;SDS011;47349;55.640;37.692;2023-07-24T02:33:14;7.55;;;5.65;;
61483;SDS011;47349;55.640;37.692;2023-07-24T02:35:42;8.90;;;5.95;;
61483;SDS011;47349;55.640;37.692;2023-07-24T02:38:09;11.55;;;7.50;;
61483;SDS011;47349;55.640;37.692;2023-07-24T02:40:40;8.35;;;4.90;;
61483;SDS011;47349;55.640;37.692;2023-07-24T02:43:08;9.10;;;6.35;;
61483;SDS011;47349;55.640;37.692;2023-07-24T02:45:36;11.10;;;5.80;;
61483;SDS011;47349;55.640;37.692;2023-07-24T02:48:05;9.85;;;6.15;;
61483;SDS011;47349;55.640;37.692;2023-07-24T02:50:33;9.02;;;5.50;;
61483;SDS011;47349;55.640;37.692;2023-07-24T02:53:00;5.60;;;4.00;;
61483;SDS011;47349;55.640;37.692;2023-07-24T02:55:28;8.45;;;5.13;;
61483;SDS011;47349;55.640;37.692;2023-07-24T02:57:55;7.55;;;5.70;;
61483;SDS011;47349;55.640;37.692;2023-07-24T03:00:23;8.85;;;7.35;;
61483;SDS011;47349;55.640;37.692;2023-07-24T03:02:51;8.52;;;5.80;;
61483;SDS011;47349;55.640;37.692;2023-07-24T03:05:19;9.00;;;5.03;;
61483;SDS011;47349;55.640;37.692;2023-07-24T03:07:48;9.00;;;5.07;;
61483;SDS011;47349;55.640;37.692;2023-07-24T03:10:16;6.63;;;5.20;;
61483;SDS011;47349;55.640;37.692;2023-07-24T03:12:57;6.32;;;5.50;;
61483;SDS011;47349;55.640;37.692;2023-07-24T03:15:30;9.00;;;5.97;;
61483;SDS011;47349;55.640;37.692;2023-07-24T03:18:14;8.25;;;6.57;;
61483;SDS011;47349;55.640;37.692;2023-07-24T03:20:56;6.80;;;5.15;;
61483;SDS011;47349;55.640;37.692;2023-07-24T03:23:30;6.70;;;4.95;;
61483;SDS011;47349;55.640;37.692;2023-07-24T03:25:57;11.23;;;6.00;;
61483;SDS011;47349;55.640;37.692;2023-07-24T03:28:25;12.30;;;5.82;;
61483;SDS011;47349;55.640;37.692;2023-07-24T03:30:56;10.30;;;5.72;;
61483;SDS011;47349;55.640;37.692;2023-07-24T03:33:38;10.82;;;6.75;;
61483;SDS011;47349;55.640;37.692;2023-07-24T03:36:08;9.15;;;5.78;;
61483;SDS011;47349;55.640;37.692;2023-07-24T03:38:35;8.30;;;5.72;;
61483;SDS011;47349;55.640;37.692;2023-07-24T03:41:06;7.70;;;5.93;;
61483;SDS011;47349;55.640;37.692;2023-07-24T03:43:47;10.30;;;6.50;;
61483;SDS011;47349;55.640;37.692;2023-07-24T03:46:14;8.95;;;5.85;;
61483;SDS011;47349;55.640;37.692;2023-07-24T03:48:42;8.63;;;4.93;;
61483;SDS011;47349;55.640;37.692;2023-07-24T03:51:09;8.65;;;5.82;;
61483;SDS011;47349;55.640;37.692;2023-07-24T03:53:50;11.70;;;5.88;;
61483;SDS011;47349;55.640;37.692;2023-07-24T03:56:31;8.68;;;5.07;;
61483;SDS011;47349;55.640;37.692;2023-07-24T03:58:59;6.50;;;4.13;;
61483;SDS011;47349;55.640;37.692;2023-07-24T04:01:40;7.50;;;4.82;;
61483;SDS011;47349;55.640;37.692;2023-07-24T04:04:07;8.02;;;4.68;;
61483;SDS011;47349;55.640;37.692;2023-07-24T04:06:35;7.30;;;5.20;;
61483;SDS011;47349;55.640;37.692;2023-07-24T04:09:03;5.03;;;3.90;;
61483;SDS011;47349;55.640;37.692;2023-07-24T04:11:30;6.13;;;4.32;;
61483;SDS011;47349;55.640;37.692;2023-07-24T04:13:59;6.40;;;4.13;;
61483;SDS011;47349;55.640;37.692;2023-07-24T04:16:26;10.45;;;4.93;;
61483;SDS011;47349;55.640;37.692;2023-07-24T04:18:55;8.77;;;4.72;;
61483;SDS011;47349;55.640;37.692;2023-07-24T04:21:25;7.97;;;5.00;;
61483;SDS011;47349;55.640;37.692;2023-07-24T04:24:08;6.20;;;4.20;;
61483;SDS011;47349;55.640;37.692;2023-07-24T04:26:36;7.10;;;4.30;;
61483;SDS011;47349;55.640;37.692;2023-07-24T04:29:04;4.43;;;3.67;;
61483;SDS011;47349;55.640;37.692;2023-07-24T04:31:31;7.00;;;4.53;;
61483;SDS011;47349;55.640;37.692;2023-07-24T04:33:59;8.40;;;4.15;;
61483;SDS011;47349;55.640;37.692;2023-07-24T04:36:27;6.25;;;4.03;;
61483;SDS011;47349;55.640;37.692;2023-07-24T04:39:00;5.05;;;3.85;;
61483;SDS011;47349;55.640;37.692;2023-07-24T04:43:59;5.47;;;3.58;;
61483;SDS011;47349;55.640;37.692;2023-07-24T04:47:41;6.63;;;3.80;;
61483;SDS011;47349;55.640;37.692;2023-07-24T05:09:54;9.40;;;3.67;;
61483;SDS011;47349;55.640;37.692;2023-07-24T05:19:48;3.88;;;2.50;;
61483;SDS011;47349;55.640;37.692;2023-07-24T05:36:40;4.32;;;2.72;;
61483;SDS011;47349;55.640;37.692;2023-07-24T05:39:07;2.55;;;2.33;;
61483;SDS011;47349;55.640;37.692;2023-07-24T05:41:35;4.97;;;3.28;;
61483;SDS011;47349;55.640;37.692;2023-07-24T05:44:06;7.70;;;3.20;;
61483;SDS011;47349;55.640;37.692;2023-07-24T05:46:33;4.40;;;2.25;;
61483;SDS011;47349;55.640;37.692;2023-07-24T05:49:01;3.88;;;2.50;;
61483;SDS011;47349;55.640;37.692;2023-07-24T05:51:28;5.15;;;2.28;;
61483;SDS011;47349;55.640;37.692;2023-07-24T05:53:55;3.60;;;2.35;;
61483;SDS011;47349;55.640;37.692;2023-07-24T05:56:22;4.53;;;2.40;;
61483;SDS011;47349;55.640;37.692;2023-07-24T05:58:50;7.80;;;2.70;;
61483;SDS011;47349;55.640;37.692;2023-07-24T06:01:17;7.13;;;3.88;;
61483;SDS011;47349;55.640;37.692;2023-07-24T06:03:44;5.25;;;2.72;;
61483;SDS011;47349;55.640;37.692;2023-07-24T06:06:12;7.60;;;3.40;;
61483;SDS011;47349;55.640;37.692;2023-07-24T06:08:39;8.90;;;3.42;;
61483;SDS011;47349;55.640;37.692;2023-07-24T06:11:06;5.72;;;2.40;;
61483;SDS011;47349;55.640;37.692;2023-07-24T06:13:33;6.80;;;2.60;;
61483;SDS011;47349;55.640;37.692;2023-07-24T06:16:01;4.75;;;3.00;;
61483;SDS011;47349;55.640;37.692;2023-07-24T06:18:28;5.35;;;2.08;;
61483;SDS011;47349;55.640;37.692;2023-07-24T06:20:55;6.03;;;2.45;;
61483;SDS011;47349;55.640;37.692;2023-07-24T06:23:23;5.32;;;2.80;;
61483;SDS011;47349;55.640;37.692;2023-07-24T06:25:50;4.45;;;2.42;;
61483;SDS011;47349;55.640;37.692;2023-07-24T06:28:18;3.78;;;2.20;;
61483;SDS011;47349;55.640;37.692;2023-07-24T06:30:45;7.75;;;2.97;;
61483;SDS011;47349;55.640;37.692;2023-07-24T06:33:13;6.63;;;2.35;;
61483;SDS011;47349;55.640;37.692;2023-07-24T06:35:40;9.27;;;3.78;;
61483;SDS011;47349;55.640;37.692;2023-07-24T06:38:07;7.22;;;2.92;;
61483;SDS011;47349;55.640;37.692;2023-07-24T06:40:35;5.03;;;2.10;;
61483;SDS011;47349;55.640;37.692;2023-07-24T06:43:02;7.40;;;3.30;;
61483;SDS011;47349;55.640;37.692;2023-07-24T06:45:30;6.65;;;2.40;;
61483;SDS011;47349;55.640;37.692;2023-07-24T06:47:57;4.57;;;2.40;;
61483;SDS011;47349;55.640;37.692;2023-07-24T06:50:24;3.35;;;2.10;;
61483;SDS011;47349;55.640;37.692;2023-07-24T06:53:06;5.18;;;2.42;;
61483;SDS011;47349;55.640;37.692;2023-07-24T06:55:33;4.80;;;1.88;;
61483;SDS011;47349;55.640;37.692;2023-07-24T06:58:14;5.75;;;2.50;;
61483;SDS011;47349;55.640;37.692;2023-07-24T07:00:55;4.07;;;2.28;;
61483;SDS011;47349;55.640;37.692;2023-07-24T07:03:24;5.25;;;2.90;;
61483;SDS011;47349;55.640;37.692;2023-07-24T07:06:05;3.58;;;2.15;;
61483;SDS011;47349;55.640;37.692;2023-07-24T07:08:53;6.22;;;2.50;;
61483;SDS011;47349;55.640;37.692;2023-07-24T07:50:42;4.43;;;2.28;;
61483;SDS011;47349;55.640;37.692;2023-07-24T07:53:10;5.40;;;2.67;;
61483;SDS011;47349;55.640;37.692;2023-07-24T08:31:39;4.32;;;3.03;;
61483;SDS011;47349;55.640;37.692;2023-07-24T09:09:52;5.00;;;3.50;;
61483;SDS011;47349;55.640;37.692;2023-07-24T10:08:53;5.30;;;3.90;;
61483;SDS011;47349;55.640;37.692;2023-07-24T10:31:51;8.90;;;5.65;;
61483;SDS011;47349;55.640;37.692;2023-07-24T11:06:58;8.20;;;4.50;;
61483;SDS011;47349;55.640;37.692;2023-07-24T11:28:40;5.38;;;3.72;;
61483;SDS011;47349;55.640;37.692;2023-07-24T11:31:24;10.48;;;4.60;;
61483;SDS011;47349;55.640;37.692;2023-07-24T11:34:52;6.03;;;4.40;;
61483;SDS011;47349;55.640;37.692;2023-07-24T11:37:47;5.97;;;3.55;;
61483;SDS011;47349;55.640;37.692;2023-07-24T11:40:39;5.07;;;3.65;;
61483;SDS011;47349;55.640;37.692;2023-07-24T11:43:27;6.40;;;4.35;;
61483;SDS011;47349;55.640;37.692;2023-07-24T11:45:58;8.73;;;4.47;;
61483;SDS011;47349;55.640;37.692;2023-07-24T11:48:40;5.70;;;4.88;;
61483;SDS011;47349;55.640;37.692;2023-07-24T11:51:24;9.45;;;5.35;;
61483;SDS011;47349;55.640;37.692;2023-07-24T11:54:13;8.27;;;5.18;;
61483;SDS011;47349;55.640;37.692;2023-07-24T11:56:56;6.50;;;4.80;;
61483;SDS011;47349;55.640;37.692;2023-07-24T11:59:24;9.32;;;6.05;;
61483;SDS011;47349;55.640;37.692;2023-07-24T12:02:10;8.30;;;6.05;;
61483;SDS011;47349;55.640;37.692;2023-07-24T12:04:56;8.30;;;5.80;;
61483;SDS011;47349;55.640;37.692;2023-07-24T12:07:42;8.15;;;7.13;;
61483;SDS011;47349;55.640;37.692;2023-07-24T12:10:30;7.95;;;6.55;;
61483;SDS011;47349;55.640;37.692;2023-07-24T12:14:03;9.68;;;6.25;;
61483;SDS011;47349;55.640;37.692;2023-07-24T12:16:48;11.00;;;6.70;;
61483;SDS011;47349;55.640;37.692;2023-07-24T12:20:26;8.20;;;6.55;;
61483;SDS011;47349;55.640;37.692;2023-07-24T12:23:35;8.02;;;6.25;;
61483;SDS011;47349;55.640;37.692;2023-07-24T12:27:41;8.63;;;6.78;;
61483;SDS011;47349;55.640;37.692;2023-07-24T12:31:00;8.05;;;7.00;;
61483;SDS011;47349;55.640;37.692;2023-07-24T12:34:46;7.90;;;6.15;;
61483;SDS011;47349;55.640;37.692;2023-07-24T12:37:23;8.93;;;5.93;;
61483;SDS011;47349;55.640;37.692;2023-07-24T12:40:06;10.23;;;6.72;;
61483;SDS011;47349;55.640;37.692;2023-07-24T12:42:49;9.40;;;6.65;;
61483;SDS011;47349;55.640;37.692;2023-07-24T12:45:33;13.23;;;7.82;;
61483;SDS011;47349;55.640;37.692;2023-07-24T12:48:38;11.02;;;7.80;;
61483;SDS011;47349;55.640;37.692;2023-07-24T12:52:00;11.75;;;8.32;;
61483;SDS011;47349;55.640;37.692;2023-07-24T12:54:43;12.57;;;9.45;;
61483;SDS011;47349;55.640;37.692;2023-07-24T12:57:42;8.98;;;7.90;;
61483;SDS011;47349;55.640;37.692;2023-07-24T13:04:31;9.63;;;8.38;;
61483;SDS011;47349;55.640;37.692;2023-07-24T13:07:59;10.82;;;8.10;;
61483;SDS011;47349;55.640;37.692;2023-07-24T13:16:59;10.73;;;8.52;;
61483;SDS011;47349;55.640;37.692;2023-07-24T13:22:05;12.43;;;8.85;;
61483;SDS011;47349;55.640;37.692;2023-07-24T13:26:19;11.73;;;9.18;;
61483;SDS011;47349;55.640;37.692;2023-07-24T13:30:34;13.20;;;9.30;;
61483;SDS011;47349;55.640;37.692;2023-07-24T13:33:23;15.32;;;11.30;;
61483;SDS011;47349;55.640;37.692;2023-07-24T13:36:10;15.77;;;9.07;;
61483;SDS011;47349;55.640;37.692;2023-07-24T13:38:54;10.23;;;8.32;;
61483;SDS011;47349;55.640;37.692;2023-07-24T13:41:41;12.90;;;8.35;;
61483;SDS011;47349;55.640;37.692;2023-07-24T13:44:56;9.57;;;7.75;;
61483;SDS011;47349;55.640;37.692;2023-07-24T13:47:49;9.93;;;8.25;;
61483;SDS011;47349;55.640;37.692;2023-07-24T13:51:26;12.65;;;8.85;;
61483;SDS011;47349;55.640;37.692;2023-07-24T13:55:41;11.43;;;9.73;;
61483;SDS011;47349;55.640;37.692;2023-07-24T13:59:16;14.05;;;8.95;;
61483;SDS011;47349;55.640;37.692;2023-07-24T14:08:32;8.35;;;7.22;;
61483;SDS011;47349;55.640;37.692;2023-07-24T14:12:51;11.00;;;7.53;;
61483;SDS011;47349;55.640;37.692;2023-07-24T14:16:15;9.77;;;7.50;;
61483;SDS011;47349;55.640;37.692;2023-07-24T14:24:31;13.30;;;9.68;;
61483;SDS011;47349;55.640;37.692;2023-07-24T14:32:13;11.35;;;9.00;;
61483;SDS011;47349;55.640;37.692;2023-07-24T14:35:03;10.45;;;7.75;;
61483;SDS011;47349;55.640;37.692;2023-07-24T14:37:47;8.32;;;6.95;;
61483;SDS011;47349;55.640;37.692;2023-07-24T14:41:30;8.73;;;6.68;;
61483;SDS011;47349;55.640;37.692;2023-07-24T14:44:39;7.90;;;7.05;;
61483;SDS011;47349;55.640;37.692;2023-07-24T14:47:22;11.50;;;7.45;;
61483;SDS011;47349;55.640;37.692;2023-07-24T14:50:52;9.02;;;6.30;;
61483;SDS011;47349;55.640;37.692;2023-07-24T14:53:40;11.13;;;6.95;;
61483;SDS011;47349;55.640;37.692;2023-07-24T14:56:24;9.20;;;5.95;;
61483;SDS011;47349;55.640;37.692;2023-07-24T14:59:07;8.43;;;5.53;;
61483;SDS011;47349;55.640;37.692;2023-07-24T15:02:03;8.60;;;5.80;;
61483;SDS011;47349;55.640;37.692;2023-07-24T15:04:44;8.65;;;5.43;;
61483;SDS011;47349;55.640;37.692;2023-07-24T15:07:25;8.68;;;5.65;;
61483;SDS011;47349;55.640;37.692;2023-07-24T15:09:56;8.07;;;5.53;;
61483;SDS011;47349;55.640;37.692;2023-07-24T15:12:39;8.95;;;5.30;;
61483;SDS011;47349;55.640;37.692;2023-07-24T15:15:23;5.22;;;4.03;;
61483;SDS011;47349;55.640;37.692;2023-07-24T15:18:06;11.52;;;4.97;;
61483;SDS011;47349;55.640;37.692;2023-07-24T15:20:47;8.23;;;4.75;;
61483;SDS011;47349;55.640;37.692;2023-07-24T15:23:28;5.80;;;3.83;;
61483;SDS011;47349;55.640;37.692;2023-07-24T15:25:56;7.28;;;4.90;;
61483;SDS011;47349;55.640;37.692;2023-07-24T15:28:40;6.93;;;4.35;;
61483;SDS011;47349;55.640;37.692;2023-07-24T15:31:22;7.10;;;5.70;;
61483;SDS011;47349;55.640;37.692;2023-07-24T15:34:04;8.23;;;5.55;;
61483;SDS011;47349;55.640;37.692;2023-07-24T15:36:50;10.07;;;6.03;;
61483;SDS011;47349;55.640;37.692;2023-07-24T15:39:57;9.23;;;5.43;;
61483;SDS011;47349;55.640;37.692;2023-07-24T15:42:39;6.03;;;4.63;;
61483;SDS011;47349;55.640;37.692;2023-07-24T15:45:21;8.55;;;5.30;;
61483;SDS011;47349;55.640;37.692;2023-07-24T15:48:03;10.30;;;6.07;;
61483;SDS011;47349;55.640;37.692;2023-07-24T15:50:48;8.90;;;6.50;;
61483;SDS011;47349;55.640;37.692;2023-07-24T15:53:52;7.15;;;5.38;;
61483;SDS011;47349;55.640;37.692;2023-07-24T15:56:34;10.50;;;5.85;;
61483;SDS011;47349;55.640;37.692;2023-07-24T15:59:57;6.10;;;5.07;;
61483;SDS011;47349;55.640;37.692;2023-07-24T16:02:40;8.70;;;5.57;;
61483;SDS011;47349;55.640;37.692;2023-07-24T16:05:31;7.15;;;5.43;;
61483;SDS011;47349;55.640;37.692;2023-07-24T16:08:12;6.95;;;5.60;;
61483;SDS011;47349;55.640;37.692;2023-07-24T16:11:56;5.82;;;4.72;;
61483;SDS011;47349;55.640;37.692;2023-07-24T16:14:38;7.18;;;5.40;;
61483;SDS011;47349;55.640;37.692;2023-07-24T16:20:47;8.80;;;6.57;;
61483;SDS011;47349;55.640;37.692;2023-07-24T16:23:50;12.23;;;7.03;;
61483;SDS011;47349;55.640;37.692;2023-07-24T16:26:20;9.48;;;7.00;;
61483;SDS011;47349;55.640;37.692;2023-07-24T16:28:49;11.48;;;7.03;;
61483;SDS011;47349;55.640;37.692;2023-07-24T16:31:31;9.57;;;6.82;;
61483;SDS011;47349;55.640;37.692;2023-07-24T16:34:10;10.85;;;6.20;;
61483;SDS011;47349;55.640;37.692;2023-07-24T16:36:52;7.43;;;6.28;;
61483;SDS011;47349;55.640;37.692;2023-07-24T16:39:33;10.43;;;5.90;;
61483;SDS011;47349;55.640;37.692;2023-07-24T16:42:14;7.80;;;5.82;;
61483;SDS011;47349;55.640;37.692;2023-07-24T16:44:56;10.13;;;5.78;;
61483;SDS011;47349;55.640;37.692;2023-07-24T16:47:40;7.95;;;7.13;;
61483;SDS011;47349;55.640;37.692;2023-07-24T16:50:22;9.52;;;6.75;;
61483;SDS011;47349;55.640;37.692;2023-07-24T16:53:04;7.78;;;6.53;;
61483;SDS011;47349;55.640;37.692;2023-07-24T16:55:45;10.45;;;7.18;;
61483;SDS011;47349;55.640;37.692;2023-07-24T16:58:27;11.07;;;7.65;;
61483;SDS011;47349;55.640;37.692;2023-07-24T17:01:08;12.63;;;8.45;;
61483;SDS011;47349;55.640;37.692;2023-07-24T17:03:50;11.88;;;8.45;;
61483;SDS011;47349;55.640;37.692;2023-07-24T17:06:32;13.95;;;7.35;;
61483;SDS011;47349;55.640;37.692;2023-07-24T17:09:13;9.85;;;7.05;;
61483;SDS011;47349;55.640;37.692;2023-07-24T17:11:42;12.27;;;7.65;;
61483;SDS011;47349;55.640;37.692;2023-07-24T17:14:23;11.98;;;8.05;;
61483;SDS011;47349;55.640;37.692;2023-07-24T17:17:05;11.02;;;8.05;;
61483;SDS011;47349;55.640;37.692;2023-07-24T17:19:47;10.02;;;6.10;;
61483;SDS011;47349;55.640;37.692;2023-07-24T17:22:32;13.23;;;8.63;;
61483;SDS011;47349;55.640;37.692;2023-07-24T17:25:10;18.08;;;11.68;;
61483;SDS011;47349;55.640;37.692;2023-07-24T17:27:52;11.80;;;6.82;;
61483;SDS011;47349;55.640;37.692;2023-07-24T17:30:34;8.82;;;6.63;;
61483;SDS011;47349;55.640;37.692;2023-07-24T17:33:15;9.50;;;6.47;;
61483;SDS011;47349;55.640;37.692;2023-07-24T17:35:56;10.52;;;6.78;;
61483;SDS011;47349;55.640;37.692;2023-07-24T17:38:40;10.25;;;7.47;;
61483;SDS011;47349;55.640;37.692;2023-07-24T17:41:22;10.13;;;6.20;;
61483;SDS011;47349;55.640;37.692;2023-07-24T17:43:52;10.77;;;6.97;;
61483;SDS011;47349;55.640;37.692;2023-07-24T17:46:34;8.80;;;6.55;;
61483;SDS011;47349;55.640;37.692;2023-07-24T17:49:15;10.10;;;6.70;;
61483;SDS011;47349;55.640;37.692;2023-07-24T17:51:43;9.85;;;6.25;;
61483;SDS011;47349;55.640;37.692;2023-07-24T17:54:24;9.23;;;7.13;;
61483;SDS011;47349;55.640;37.692;2023-07-24T17:57:06;9.57;;;7.05;;
61483;SDS011;47349;55.640;37.692;2023-07-24T17:59:48;10.50;;;7.25;;
61483;SDS011;47349;55.640;37.692;2023-07-24T18:02:19;10.23;;;7.43;;
61483;SDS011;47349;55.640;37.692;2023-07-24T18:05:00;11.70;;;7.15;;
61483;SDS011;47349;55.640;37.692;2023-07-24T18:07:41;11.43;;;7.60;;
61483;SDS011;47349;55.640;37.692;2023-07-24T18:10:27;8.65;;;6.22;;
61483;SDS011;47349;55.640;37.692;2023-07-24T18:12:57;10.48;;;6.57;;
61483;SDS011;47349;55.640;37.692;2023-07-24T18:15:33;9.52;;;7.45;;
61483;SDS011;47349;55.640;37.692;2023-07-24T18:18:01;12.73;;;7.85;;
61483;SDS011;47349;55.640;37.692;2023-07-24T18:20:34;10.50;;;7.60;;
61483;SDS011;47349;55.640;37.692;2023-07-24T18:23:11;11.40;;;7.97;;
61483;SDS011;47349;55.640;37.692;2023-07-24T18:25:49;10.45;;;7.45;;
61483;SDS011;47349;55.640;37.692;2023-07-24T18:28:30;9.60;;;7.40;;
61483;SDS011;47349;55.640;37.692;2023-07-24T18:31:01;9.15;;;7.10;;
61483;SDS011;47349;55.640;37.692;2023-07-24T18:33:29;13.10;;;8.60;;
61483;SDS011;47349;55.640;37.692;2023-07-24T18:35:59;10.95;;;8.07;;
61483;SDS011;47349;55.640;37.692;2023-07-24T18:38:26;12.82;;;8.30;;
61483;SDS011;47349;55.640;37.692;2023-07-24T18:41:07;10.80;;;8.55;;
61483;SDS011;47349;55.640;37.692;2023-07-24T18:43:37;12.18;;;9.52;;
61483;SDS011;47349;55.640;37.692;2023-07-24T18:46:08;15.02;;;9.45;;
61483;SDS011;47349;55.640;37.692;2023-07-24T18:48:37;13.38;;;9.75;;
61483;SDS011;47349;55.640;37.692;2023-07-24T18:51:18;12.05;;;9.65;;
61483;SDS011;47349;55.640;37.692;2023-07-24T18:53:49;12.80;;;9.50;;
61483;SDS011;47349;55.640;37.692;2023-07-24T18:56:19;16.45;;;9.93;;
61483;SDS011;47349;55.640;37.692;2023-07-24T18:59:01;14.20;;;9.50;;
61483;SDS011;47349;55.640;37.692;2023-07-24T19:01:29;13.50;;;9.75;;
61483;SDS011;47349;55.640;37.692;2023-07-24T19:04:01;14.30;;;9.93;;
61483;SDS011;47349;55.640;37.692;2023-07-24T19:06:48;21.33;;;18.02;;
61483;SDS011;47349;55.640;37.692;2023-07-24T19:09:16;13.43;;;9.65;;
61483;SDS011;47349;55.640;37.692;2023-07-24T19:11:44;15.65;;;9.85;;
61483;SDS011;47349;55.640;37.692;2023-07-24T19:14:12;14.05;;;10.63;;
61483;SDS011;47349;55.640;37.692;2023-07-24T19:16:40;13.52;;;9.98;;
61483;SDS011;47349;55.640;37.692;2023-07-24T19:19:15;14.80;;;10.25;;
61483;SDS011;47349;55.640;37.692;2023-07-24T19:21:43;14.15;;;9.32;;
61483;SDS011;47349;55.640;37.692;2023-07-24T19:24:17;13.10;;;9.18;;
61483;SDS011;47349;55.640;37.692;2023-07-24T19:26:47;14.40;;;10.50;;
61483;SDS011;47349;55.640;37.692;2023-07-24T19:29:15;15.32;;;10.07;;
61483;SDS011;47349;55.640;37.692;2023-07-24T19:31:43;15.23;;;9.60;;
61483;SDS011;47349;55.640;37.692;2023-07-24T19:34:10;13.52;;;8.60;;
61483;SDS011;47349;55.640;37.692;2023-07-24T19:36:40;12.48;;;9.57;;
61483;SDS011;47349;55.640;37.692;2023-07-24T19:41:44;12.55;;;9.18;;
61483;SDS011;47349;55.640;37.692;2023-07-24T19:44:12;12.25;;;9.00;;
61483;SDS011;47349;55.640;37.692;2023-07-24T19:46:40;15.38;;;9.38;;
61483;SDS011;47349;55.640;37.692;2023-07-24T19:49:16;14.57;;;10.23;;
61483;SDS011;47349;55.640;37.692;2023-07-24T19:51:51;15.05;;;10.52;;
61483;SDS011;47349;55.640;37.692;2023-07-24T19:54:32;13.65;;;11.23;;
61483;SDS011;47349;55.640;37.692;2023-07-24T19:56:59;18.85;;;11.50;;
61483;SDS011;47349;55.640;37.692;2023-07-24T19:59:27;15.80;;;11.20;;
61483;SDS011;47349;55.640;37.692;2023-07-24T20:02:05;14.25;;;10.60;;
61483;SDS011;47349;55.640;37.692;2023-07-24T20:04:34;13.88;;;10.65;;
61483;SDS011;47349;55.640;37.692;2023-07-24T20:07:02;12.25;;;8.52;;
61483;SDS011;47349;55.640;37.692;2023-07-24T20:09:32;12.15;;;8.57;;
61483;SDS011;47349;55.640;37.692;2023-07-24T20:12:06;11.10;;;8.25;;
61483;SDS011;47349;55.640;37.692;2023-07-24T20:14:34;10.38;;;7.97;;
61483;SDS011;47349;55.640;37.692;2023-07-24T20:17:02;12.38;;;8.90;;
61483;SDS011;47349;55.640;37.692;2023-07-24T20:19:34;14.32;;;9.25;;
61483;SDS011;47349;55.640;37.692;2023-07-24T20:22:03;10.65;;;8.80;;
61483;SDS011;47349;55.640;37.692;2023-07-24T20:24:31;14.50;;;8.05;;
61483;SDS011;47349;55.640;37.692;2023-07-24T20:26:58;12.35;;;8.50;;
61483;SDS011;47349;55.640;37.692;2023-07-24T20:29:30;10.30;;;8.63;;
61483;SDS011;47349;55.640;37.692;2023-07-24T20:31:57;11.82;;;8.70;;
61483;SDS011;47349;55.640;37.692;2023-07-24T20:34:28;14.25;;;8.18;;
61483;SDS011;47349;55.640;37.692;2023-07-24T20:36:55;12.68;;;8.63;;
61483;SDS011;47349;55.640;37.692;2023-07-24T20:39:24;12.75;;;8.95;;
61483;SDS011;47349;55.640;37.692;2023-07-24T20:41:54;14.35;;;8.88;;
61483;SDS011;47349;55.640;37.692;2023-07-24T20:44:22;17.83;;;8.80;;
61483;SDS011;47349;55.640;37.692;2023-07-24T20:46:52;12.18;;;7.97;;
61483;SDS011;47349;55.640;37.692;2023-07-24T20:49:20;13.60;;;8.63;;
61483;SDS011;47349;55.640;37.692;2023-07-24T20:51:49;9.70;;;7.25;;
61483;SDS011;47349;55.640;37.692;2023-07-24T20:54:17;11.95;;;8.85;;
61483;SDS011;47349;55.640;37.692;2023-07-24T20:56:45;11.95;;;8.43;;